sensor_id;sensor_type;location;lat;lon;timestamp;pressure;altitude;pressure_sealevel;temperature;humidity
50854;BME280;44154;45.506;-122.806;2023-01-27T00:02:08;102710.84;;;23.56;37.94
50854;BME280;44154;45.506;-122.806;2023-01-27T00:04:34;102709.00;;;23.99;37.86
50854;BME280;44154;45.506;-122.806;2023-01-27T00:07:01;102693.09;;;24.56;36.91
50854;BME280;44154;45.506;-122.806;2023-01-27T00:09:27;102701.38;;;24.89;36.42
50854;BME280;44154;45.506;-122.806;2023-01-27T00:11:53;102684.91;;;24.76;36.40
50854;BME280;44154;45.506;-122.806;2023-01-27T00:14:48;102693.75;;;24.65;36.77
50854;BME280;44154;45.506;-122.806;2023-01-27T00:17:14;102689.50;;;24.49;36.92
50854;BME280;44154;45.506;-122.806;2023-01-27T00:19:40;102684.03;;;24.35;37.38
50854;BME280;44154;45.506;-122.806;2023-01-27T00:22:09;102678.09;;;24.18;37.55
50854;BME280;44154;45.506;-122.806;2023-01-27T00:24:53;102669.66;;;24.06;38.06
50854;BME280;44154;45.506;-122.806;2023-01-27T00:27:19;102661.63;;;23.92;38.21
50854;BME280;44154;45.506;-122.806;2023-01-27T00:29:45;102667.53;;;23.88;38.09
50854;BME280;44154;45.506;-122.806;2023-01-27T00:32:12;102664.47;;;23.77;37.04
50854;BME280;44154;45.506;-122.806;2023-01-27T00:34:56;102674.28;;;23.58;36.26
50854;BME280;44154;45.506;-122.806;2023-01-27T00:37:22;102676.16;;;23.50;37.18
50854;BME280;44154;45.506;-122.806;2023-01-27T00:39:48;102678.56;;;23.67;37.34
50854;BME280;44154;45.506;-122.806;2023-01-27T00:42:14;102674.94;;;24.21;36.73
50854;BME280;44154;45.506;-122.806;2023-01-27T00:44:40;102672.72;;;24.79;35.87
50854;BME280;44154;45.506;-122.806;2023-01-27T00:47:27;102676.06;;;24.87;35.55
50854;BME280;44154;45.506;-122.806;2023-01-27T00:49:53;102664.28;;;24.67;35.60
50854;BME280;44154;45.506;-122.806;2023-01-27T00:52:19;102659.19;;;24.44;36.05
50854;BME280;44154;45.506;-122.806;2023-01-27T00:54:45;102652.84;;;24.16;36.27
50854;BME280;44154;45.506;-122.806;2023-01-27T00:57:11;102658.50;;;24.08;36.48
50854;BME280;44154;45.506;-122.806;2023-01-27T00:59:38;102645.00;;;23.86;36.94
50854;BME280;44154;45.506;-122.806;2023-01-27T01:02:04;102648.94;;;23.77;37.02
50854;BME280;44154;45.506;-122.806;2023-01-27T01:04:30;102650.59;;;23.71;37.20
50854;BME280;44154;45.506;-122.806;2023-01-27T01:06:56;102628.22;;;23.54;37.25
50854;BME280;44154;45.506;-122.806;2023-01-27T01:09:22;102645.91;;;23.59;37.22
50854;BME280;44154;45.506;-122.806;2023-01-27T01:11:48;102642.81;;;23.68;37.26
50854;BME280;44154;45.506;-122.806;2023-01-27T01:14:15;102649.72;;;24.26;36.45
50854;BME280;44154;45.506;-122.806;2023-01-27T01:16:41;102643.22;;;24.67;35.37
50854;BME280;44154;45.506;-122.806;2023-01-27T01:19:07;102654.38;;;24.79;35.47
50854;BME280;44154;45.506;-122.806;2023-01-27T01:21:34;102651.25;;;24.62;35.54
50854;BME280;44154;45.506;-122.806;2023-01-27T01:24:00;102662.97;;;24.42;35.72
50854;BME280;44154;45.506;-122.806;2023-01-27T01:26:26;102652.88;;;24.23;36.05
50854;BME280;44154;45.506;-122.806;2023-01-27T01:28:52;102638.53;;;24.07;36.31
50854;BME280;44154;45.506;-122.806;2023-01-27T01:31:18;102632.19;;;23.94;36.52
50854;BME280;44154;45.506;-122.806;2023-01-27T01:33:46;102621.81;;;23.82;36.70
50854;BME280;44154;45.506;-122.806;2023-01-27T01:36:17;102604.75;;;23.73;36.94
50854;BME280;44154;45.506;-122.806;2023-01-27T01:38:44;102608.50;;;23.66;36.96
50854;BME280;44154;45.506;-122.806;2023-01-27T01:41:14;102596.28;;;23.55;37.17
50854;BME280;44154;45.506;-122.806;2023-01-27T01:43:41;102596.63;;;23.94;36.45
50854;BME280;44154;45.506;-122.806;2023-01-27T01:46:09;102602.34;;;24.59;35.68
50854;BME280;44154;45.506;-122.806;2023-01-27T01:48:42;102603.59;;;24.97;34.88
50854;BME280;44154;45.506;-122.806;2023-01-27T01:51:15;102597.91;;;24.91;34.90
50854;BME280;44154;45.506;-122.806;2023-01-27T01:53:51;102590.56;;;24.72;35.22
50854;BME280;44154;45.506;-122.806;2023-01-27T01:56:41;102599.41;;;24.54;35.56
50854;BME280;44154;45.506;-122.806;2023-01-27T01:59:17;102596.06;;;24.32;35.99
50854;BME280;44154;45.506;-122.806;2023-01-27T02:01:45;102593.94;;;24.20;36.32
50854;BME280;44154;45.506;-122.806;2023-01-27T02:04:17;102602.34;;;24.12;36.60
50854;BME280;44154;45.506;-122.806;2023-01-27T02:09:32;102589.69;;;23.98;37.33
50854;BME280;44154;45.506;-122.806;2023-01-27T02:11:58;102579.16;;;23.95;37.84
50854;BME280;44154;45.506;-122.806;2023-01-27T02:14:25;102576.19;;;23.89;38.06
50854;BME280;44154;45.506;-122.806;2023-01-27T02:16:51;102570.13;;;23.87;38.34
50854;BME280;44154;45.506;-122.806;2023-01-27T02:19:29;102563.13;;;23.85;38.76
50854;BME280;44154;45.506;-122.806;2023-01-27T02:22:02;102558.91;;;23.82;39.11
50854;BME280;44154;45.506;-122.806;2023-01-27T02:24:36;102566.25;;;23.75;38.81
50854;BME280;44154;45.506;-122.806;2023-01-27T02:27:06;102550.91;;;23.67;38.84
50854;BME280;44154;45.506;-122.806;2023-01-27T02:29:32;102565.31;;;24.23;39.15
50854;BME280;44154;45.506;-122.806;2023-01-27T02:31:58;102570.56;;;24.78;38.16
50854;BME280;44154;45.506;-122.806;2023-01-27T02:34:29;102552.00;;;24.80;37.10
50854;BME280;44154;45.506;-122.806;2023-01-27T02:37:02;102560.91;;;24.62;37.31
50854;BME280;44154;45.506;-122.806;2023-01-27T02:39:36;102553.09;;;24.39;37.71
50854;BME280;44154;45.506;-122.806;2023-01-27T02:42:06;102552.69;;;24.22;37.86
50854;BME280;44154;45.506;-122.806;2023-01-27T02:44:35;102547.81;;;24.04;38.27
50854;BME280;44154;45.506;-122.806;2023-01-27T02:47:01;102555.19;;;23.97;38.12
50854;BME280;44154;45.506;-122.806;2023-01-27T02:49:27;102549.47;;;23.85;38.54
50854;BME280;44154;45.506;-122.806;2023-01-27T02:51:53;102545.00;;;23.70;38.91
50854;BME280;44154;45.506;-122.806;2023-01-27T02:54:20;102551.31;;;23.71;39.03
50854;BME280;44154;45.506;-122.806;2023-01-27T02:56:46;102545.66;;;23.66;39.11
50854;BME280;44154;45.506;-122.806;2023-01-27T02:59:12;102548.34;;;23.59;39.16
50854;BME280;44154;45.506;-122.806;2023-01-27T03:01:38;102544.59;;;23.67;39.02
50854;BME280;44154;45.506;-122.806;2023-01-27T03:04:04;102568.69;;;24.32;38.38
50854;BME280;44154;45.506;-122.806;2023-01-27T03:06:30;102570.13;;;24.74;37.06
50854;BME280;44154;45.506;-122.806;2023-01-27T03:08:56;102563.59;;;24.69;36.83
50854;BME280;44154;45.506;-122.806;2023-01-27T03:11:23;102562.34;;;24.51;36.91
50854;BME280;44154;45.506;-122.806;2023-01-27T03:14:07;102569.09;;;24.29;37.44
50854;BME280;44154;45.506;-122.806;2023-01-27T03:16:34;102573.72;;;24.15;37.97
50854;BME280;44154;45.506;-122.806;2023-01-27T03:19:19;102562.13;;;23.99;38.31
50854;BME280;44154;45.506;-122.806;2023-01-27T03:21:45;102563.59;;;23.88;38.30
50854;BME280;44154;45.506;-122.806;2023-01-27T03:24:15;102546.09;;;23.76;38.56
50854;BME280;44154;45.506;-122.806;2023-01-27T03:26:41;102545.84;;;23.71;38.60
50854;BME280;44154;45.506;-122.806;2023-01-27T03:29:07;102534.06;;;23.64;38.79
50854;BME280;44154;45.506;-122.806;2023-01-27T03:31:52;102539.75;;;23.55;39.27
50854;BME280;44154;45.506;-122.806;2023-01-27T03:34:18;102543.97;;;23.78;38.86
50854;BME280;44154;45.506;-122.806;2023-01-27T03:36:44;102538.56;;;24.38;38.14
50854;BME280;44154;45.506;-122.806;2023-01-27T03:39:29;102533.69;;;24.74;37.08
50854;BME280;44154;45.506;-122.806;2023-01-27T03:42:14;102539.22;;;24.61;37.01
50854;BME280;44154;45.506;-122.806;2023-01-27T03:44:59;102537.72;;;24.45;37.41
50854;BME280;44154;45.506;-122.806;2023-01-27T03:47:43;102538.97;;;24.29;37.51
50854;BME280;44154;45.506;-122.806;2023-01-27T03:50:09;102534.16;;;24.11;37.83
50854;BME280;44154;45.506;-122.806;2023-01-27T03:52:38;102534.56;;;24.01;38.43
50854;BME280;44154;45.506;-122.806;2023-01-27T03:55:05;102534.16;;;23.90;38.36
50854;BME280;44154;45.506;-122.806;2023-01-27T03:57:36;102531.16;;;23.79;38.61
50854;BME280;44154;45.506;-122.806;2023-01-27T04:00:03;102516.00;;;23.63;38.56
50854;BME280;44154;45.506;-122.806;2023-01-27T04:02:32;102525.44;;;23.60;38.85
50854;BME280;44154;45.506;-122.806;2023-01-27T04:05:16;102521.47;;;23.63;38.71
50854;BME280;44154;45.506;-122.806;2023-01-27T04:08:00;102515.16;;;23.82;38.40
50854;BME280;44154;45.506;-122.806;2023-01-27T04:10:27;102512.69;;;24.14;37.93
50854;BME280;44154;45.506;-122.806;2023-01-27T04:12:53;102510.16;;;24.33;37.66
50854;BME280;44154;45.506;-122.806;2023-01-27T04:15:20;102502.56;;;24.21;37.86
50854;BME280;44154;45.506;-122.806;2023-01-27T04:17:47;102503.84;;;24.12;37.99
50854;BME280;44154;45.506;-122.806;2023-01-27T04:20:13;102493.97;;;23.98;37.96
50854;BME280;44154;45.506;-122.806;2023-01-27T04:22:39;102504.66;;;23.79;38.29
50854;BME280;44154;45.506;-122.806;2023-01-27T04:25:05;102507.56;;;23.71;38.50
50854;BME280;44154;45.506;-122.806;2023-01-27T04:27:33;102503.38;;;23.62;38.71
50854;BME280;44154;45.506;-122.806;2023-01-27T04:29:59;102490.97;;;23.52;38.86
50854;BME280;44154;45.506;-122.806;2023-01-27T04:32:25;102491.16;;;23.44;39.09
50854;BME280;44154;45.506;-122.806;2023-01-27T04:34:52;102488.81;;;23.41;39.23
50854;BME280;44154;45.506;-122.806;2023-01-27T04:37:18;102491.59;;;23.68;39.14
50854;BME280;44154;45.506;-122.806;2023-01-27T04:39:44;102490.41;;;23.97;38.65
50854;BME280;44154;45.506;-122.806;2023-01-27T04:42:12;102486.59;;;24.18;37.76
50854;BME280;44154;45.506;-122.806;2023-01-27T04:44:38;102487.03;;;24.22;37.75
50854;BME280;44154;45.506;-122.806;2023-01-27T04:47:04;102483.22;;;24.10;37.94
50854;BME280;44154;45.506;-122.806;2023-01-27T04:49:30;102479.47;;;23.97;37.94
50854;BME280;44154;45.506;-122.806;2023-01-27T04:51:56;102468.13;;;23.87;38.08
50854;BME280;44154;45.506;-122.806;2023-01-27T04:54:23;102468.69;;;23.76;38.38
50854;BME280;44154;45.506;-122.806;2023-01-27T04:57:00;102469.09;;;23.66;38.33
50854;BME280;44154;45.506;-122.806;2023-01-27T04:59:28;102466.78;;;23.56;38.65
50854;BME280;44154;45.506;-122.806;2023-01-27T05:01:54;102467.81;;;23.48;38.48
50854;BME280;44154;45.506;-122.806;2023-01-27T05:04:20;102458.78;;;23.41;38.73
50854;BME280;44154;45.506;-122.806;2023-01-27T05:06:47;102446.59;;;23.50;38.93
50854;BME280;44154;45.506;-122.806;2023-01-27T05:09:13;102446.19;;;23.80;38.64
50854;BME280;44154;45.506;-122.806;2023-01-27T05:11:39;102454.22;;;24.09;37.84
50854;BME280;44154;45.506;-122.806;2023-01-27T05:14:05;102456.50;;;24.18;37.42
50854;BME280;44154;45.506;-122.806;2023-01-27T05:16:32;102444.72;;;24.11;37.44
50854;BME280;44154;45.506;-122.806;2023-01-27T05:18:58;102446.66;;;23.97;37.59
50854;BME280;44154;45.506;-122.806;2023-01-27T05:21:25;102443.66;;;23.85;37.89
50854;BME280;44154;45.506;-122.806;2023-01-27T05:23:55;102440.72;;;23.73;38.09
50854;BME280;44154;45.506;-122.806;2023-01-27T05:26:24;102430.84;;;23.66;38.03
50854;BME280;44154;45.506;-122.806;2023-01-27T05:28:52;102410.84;;;23.45;38.57
50854;BME280;44154;45.506;-122.806;2023-01-27T05:31:21;102396.13;;;23.33;38.42
50854;BME280;44154;45.506;-122.806;2023-01-27T05:33:49;102410.84;;;23.45;38.44
50854;BME280;44154;45.506;-122.806;2023-01-27T05:36:18;102408.50;;;23.42;38.84
50854;BME280;44154;45.506;-122.806;2023-01-27T05:38:44;102404.97;;;23.68;38.61
50854;BME280;44154;45.506;-122.806;2023-01-27T05:41:13;102393.59;;;24.05;37.98
50854;BME280;44154;45.506;-122.806;2023-01-27T05:43:41;102394.63;;;24.24;37.38
50854;BME280;44154;45.506;-122.806;2023-01-27T05:46:10;102372.56;;;24.12;37.36
50854;BME280;44154;45.506;-122.806;2023-01-27T05:48:45;102390.66;;;24.13;37.45
50854;BME280;44154;45.506;-122.806;2023-01-27T05:51:13;102394.25;;;24.00;37.48
50854;BME280;44154;45.506;-122.806;2023-01-27T05:53:40;102376.59;;;23.89;37.64
50854;BME280;44154;45.506;-122.806;2023-01-27T05:56:08;102364.19;;;23.67;37.98
50854;BME280;44154;45.506;-122.806;2023-01-27T05:58:35;102378.69;;;23.61;38.15
50854;BME280;44154;45.506;-122.806;2023-01-27T06:01:19;102380.56;;;23.53;38.31
50854;BME280;44154;45.506;-122.806;2023-01-27T06:03:46;102389.19;;;23.50;38.35
50854;BME280;44154;45.506;-122.806;2023-01-27T06:06:15;102383.31;;;23.47;38.53
50854;BME280;44154;45.506;-122.806;2023-01-27T06:08:42;102393.19;;;23.68;38.63
50854;BME280;44154;45.506;-122.806;2023-01-27T06:11:09;102379.94;;;23.98;38.09
50854;BME280;44154;45.506;-122.806;2023-01-27T06:13:35;102390.19;;;24.30;37.26
50854;BME280;44154;45.506;-122.806;2023-01-27T06:16:08;102384.72;;;24.30;37.14
50854;BME280;44154;45.506;-122.806;2023-01-27T06:18:35;102391.91;;;24.17;37.04
50854;BME280;44154;45.506;-122.806;2023-01-27T06:21:03;102374.91;;;24.02;37.44
50854;BME280;44154;45.506;-122.806;2023-01-27T06:23:30;102377.66;;;23.88;37.66
50854;BME280;44154;45.506;-122.806;2023-01-27T06:26:05;102364.59;;;23.77;37.65
50854;BME280;44154;45.506;-122.806;2023-01-27T06:28:32;102366.94;;;23.67;37.81
50854;BME280;44154;45.506;-122.806;2023-01-27T06:31:10;102355.34;;;23.58;38.14
50854;BME280;44154;45.506;-122.806;2023-01-27T06:33:37;102342.97;;;23.55;38.19
50854;BME280;44154;45.506;-122.806;2023-01-27T06:36:08;102340.63;;;23.39;38.57
50854;BME280;44154;45.506;-122.806;2023-01-27T06:38:34;102353.25;;;23.67;38.88
50854;BME280;44154;45.506;-122.806;2023-01-27T06:41:01;102351.97;;;23.89;38.71
50854;BME280;44154;45.506;-122.806;2023-01-27T06:43:27;102354.06;;;24.07;37.88
50854;BME280;44154;45.506;-122.806;2023-01-27T06:45:53;102361.63;;;24.05;37.57
50854;BME280;44154;45.506;-122.806;2023-01-27T06:48:22;102353.28;;;23.87;37.58
50854;BME280;44154;45.506;-122.806;2023-01-27T06:50:48;102358.28;;;23.77;37.57
50854;BME280;44154;45.506;-122.806;2023-01-27T06:53:14;102359.75;;;23.66;37.91
50854;BME280;44154;45.506;-122.806;2023-01-27T06:55:40;102365.66;;;23.63;38.05
50854;BME280;44154;45.506;-122.806;2023-01-27T06:58:09;102327.19;;;23.44;37.94
50854;BME280;44154;45.506;-122.806;2023-01-27T07:00:36;102308.06;;;23.17;38.78
50854;BME280;44154;45.506;-122.806;2023-01-27T07:03:03;102350.53;;;23.47;39.09
50854;BME280;44154;45.506;-122.806;2023-01-27T07:05:31;102343.59;;;23.44;39.70
50854;BME280;44154;45.506;-122.806;2023-01-27T07:07:58;102325.50;;;23.30;40.23
50854;BME280;44154;45.506;-122.806;2023-01-27T07:10:25;102338.31;;;23.36;39.67
50854;BME280;44154;45.506;-122.806;2023-01-27T07:12:51;102306.16;;;23.25;39.11
50854;BME280;44154;45.506;-122.806;2023-01-27T07:15:17;102313.72;;;23.29;38.98
50854;BME280;44154;45.506;-122.806;2023-01-27T07:17:43;102311.19;;;23.28;38.99
50854;BME280;44154;45.506;-122.806;2023-01-27T07:20:13;102314.78;;;23.28;39.14
50854;BME280;44154;45.506;-122.806;2023-01-27T07:22:39;102314.16;;;23.26;39.51
50854;BME280;44154;45.506;-122.806;2023-01-27T07:25:05;102321.72;;;23.24;39.71
50854;BME280;44154;45.506;-122.806;2023-01-27T07:27:32;102319.41;;;23.21;39.89
50854;BME280;44154;45.506;-122.806;2023-01-27T07:29:58;102258.84;;;22.84;39.86
50854;BME280;44154;45.506;-122.806;2023-01-27T07:32:24;102294.81;;;23.14;39.67
50854;BME280;44154;45.506;-122.806;2023-01-27T07:34:50;102290.16;;;23.08;39.94
50854;BME280;44154;45.506;-122.806;2023-01-27T07:37:16;102293.94;;;23.07;39.74
50854;BME280;44154;45.506;-122.806;2023-01-27T07:39:42;102292.25;;;23.06;40.00
50854;BME280;44154;45.506;-122.806;2023-01-27T07:42:08;102269.41;;;23.27;42.49
50854;BME280;44154;45.506;-122.806;2023-01-27T07:44:34;102258.19;;;23.69;42.43
50854;BME280;44154;45.506;-122.806;2023-01-27T07:47:01;102240.13;;;23.68;41.78
50854;BME280;44154;45.506;-122.806;2023-01-27T07:49:27;102238.19;;;23.82;40.51
50854;BME280;44154;45.506;-122.806;2023-01-27T07:51:53;102234.22;;;23.71;40.57
50854;BME280;44154;45.506;-122.806;2023-01-27T07:54:19;102245.19;;;23.64;41.21
50854;BME280;44154;45.506;-122.806;2023-01-27T07:56:45;102201.72;;;23.29;41.45
50854;BME280;44154;45.506;-122.806;2023-01-27T07:59:11;102233.84;;;23.47;41.61
50854;BME280;44154;45.506;-122.806;2023-01-27T08:01:38;102243.53;;;23.43;41.85
50854;BME280;44154;45.506;-122.806;2023-01-27T08:04:06;102231.16;;;23.34;41.98
50854;BME280;44154;45.506;-122.806;2023-01-27T08:06:32;102199.44;;;23.19;41.85
50854;BME280;44154;45.506;-122.806;2023-01-27T08:08:58;102230.94;;;23.22;41.88
50854;BME280;44154;45.506;-122.806;2023-01-27T08:11:25;102208.69;;;23.18;41.82
50854;BME280;44154;45.506;-122.806;2023-01-27T08:13:52;102200.28;;;23.13;42.13
50854;BME280;44154;45.506;-122.806;2023-01-27T08:16:18;102207.19;;;23.09;41.96
50854;BME280;44154;45.506;-122.806;2023-01-27T08:18:44;102190.38;;;23.06;42.05
50854;BME280;44154;45.506;-122.806;2023-01-27T08:21:11;102170.44;;;23.12;43.56
50854;BME280;44154;45.506;-122.806;2023-01-27T08:23:38;102168.94;;;23.36;43.44
50854;BME280;44154;45.506;-122.806;2023-01-27T08:26:05;102152.63;;;23.68;41.85
50854;BME280;44154;45.506;-122.806;2023-01-27T08:28:33;102160.81;;;23.81;41.85
50854;BME280;44154;45.506;-122.806;2023-01-27T08:31:11;102184.59;;;23.74;42.30
50854;BME280;44154;45.506;-122.806;2023-01-27T08:33:38;102204.63;;;23.61;41.68
50854;BME280;44154;45.506;-122.806;2023-01-27T08:36:08;102175.88;;;23.45;42.13
50854;BME280;44154;45.506;-122.806;2023-01-27T08:38:35;102132.41;;;23.24;42.55
50854;BME280;44154;45.506;-122.806;2023-01-27T08:41:23;102137.25;;;23.21;42.43
50854;BME280;44154;45.506;-122.806;2023-01-27T08:43:49;102139.09;;;23.08;42.72
50854;BME280;44154;45.506;-122.806;2023-01-27T08:46:16;102138.06;;;23.09;42.79
50854;BME280;44154;45.506;-122.806;2023-01-27T08:48:42;102133.25;;;23.04;43.01
50854;BME280;44154;45.506;-122.806;2023-01-27T08:51:11;102122.34;;;22.91;43.10
50854;BME280;44154;45.506;-122.806;2023-01-27T08:53:39;102138.09;;;22.95;43.36
50854;BME280;44154;45.506;-122.806;2023-01-27T08:56:07;102088.50;;;23.05;43.36
50854;BME280;44154;45.506;-122.806;2023-01-27T08:58:34;102131.88;;;23.53;41.76
50854;BME280;44154;45.506;-122.806;2023-01-27T09:01:02;102120.66;;;23.75;41.32
50854;BME280;44154;45.506;-122.806;2023-01-27T09:03:29;102123.22;;;23.70;41.60
50854;BME280;44154;45.506;-122.806;2023-01-27T09:05:56;102114.44;;;23.54;41.69
50854;BME280;44154;45.506;-122.806;2023-01-27T09:08:22;102114.50;;;23.41;41.68
50854;BME280;44154;45.506;-122.806;2023-01-27T09:10:48;102117.06;;;23.23;41.88
50854;BME280;44154;45.506;-122.806;2023-01-27T09:13:15;102123.41;;;23.16;42.11
50854;BME280;44154;45.506;-122.806;2023-01-27T09:15:42;102119.16;;;23.07;42.26
50854;BME280;44154;45.506;-122.806;2023-01-27T09:18:09;102110.16;;;23.00;42.25
50854;BME280;44154;45.506;-122.806;2023-01-27T09:20:35;102105.75;;;22.85;41.97
50854;BME280;44154;45.506;-122.806;2023-01-27T09:23:03;102111.88;;;22.88;42.12
50854;BME280;44154;45.506;-122.806;2023-01-27T09:25:30;102104.50;;;22.81;42.88
50854;BME280;44154;45.506;-122.806;2023-01-27T09:27:57;102105.53;;;23.14;42.55
50854;BME280;44154;45.506;-122.806;2023-01-27T09:30:25;102103.13;;;23.44;41.13
50854;BME280;44154;45.506;-122.806;2023-01-27T09:32:52;102096.25;;;23.73;40.60
50854;BME280;44154;45.506;-122.806;2023-01-27T09:35:18;102086.19;;;23.74;40.47
50854;BME280;44154;45.506;-122.806;2023-01-27T09:37:55;102092.13;;;23.58;40.89
50854;BME280;44154;45.506;-122.806;2023-01-27T09:40:31;102073.31;;;23.29;41.33
50854;BME280;44154;45.506;-122.806;2023-01-27T09:51:28;102041.13;;;22.66;42.02
50854;BME280;44154;45.506;-122.806;2023-01-27T09:54:14;102083.91;;;22.85;41.87
50854;BME280;44154;45.506;-122.806;2023-01-27T09:59:54;102082.63;;;23.15;42.10
50854;BME280;44154;45.506;-122.806;2023-01-27T10:08:07;102089.16;;;23.66;40.30
50854;BME280;44154;45.506;-122.806;2023-01-27T10:16:45;102062.06;;;23.12;41.05
50854;BME280;44154;45.506;-122.806;2023-01-27T10:19:26;102052.59;;;23.01;41.32
50854;BME280;44154;45.506;-122.806;2023-01-27T10:25:07;102042.97;;;22.85;41.53
50854;BME280;44154;45.506;-122.806;2023-01-27T10:27:37;102032.69;;;22.81;41.54
50854;BME280;44154;45.506;-122.806;2023-01-27T10:32:51;102030.53;;;23.16;41.44
50854;BME280;44154;45.506;-122.806;2023-01-27T10:35:30;102019.00;;;23.60;40.25
50854;BME280;44154;45.506;-122.806;2023-01-27T10:45:52;102003.84;;;23.18;40.66
50854;BME280;44154;45.506;-122.806;2023-01-27T10:48:33;101990.00;;;23.00;41.01
50854;BME280;44154;45.506;-122.806;2023-01-27T10:51:10;101988.75;;;22.96;41.13
50854;BME280;44154;45.506;-122.806;2023-01-27T11:05:20;101964.53;;;23.58;39.89
50854;BME280;44154;45.506;-122.806;2023-01-27T11:07:58;101929.50;;;23.48;39.78
50854;BME280;44154;45.506;-122.806;2023-01-27T11:10:35;101929.44;;;23.55;40.04
50854;BME280;44154;45.506;-122.806;2023-01-27T11:13:04;101946.16;;;23.40;40.35
50854;BME280;44154;45.506;-122.806;2023-01-27T11:15:33;101922.94;;;23.17;40.42
50854;BME280;44154;45.506;-122.806;2023-01-27T11:18:17;101931.38;;;23.09;40.66
50854;BME280;44154;45.506;-122.806;2023-01-27T11:20:51;101934.78;;;22.98;40.74
50854;BME280;44154;45.506;-122.806;2023-01-27T11:23:21;101933.13;;;22.90;41.03
50854;BME280;44154;45.506;-122.806;2023-01-27T11:33:53;101927.28;;;23.32;40.51
50854;BME280;44154;45.506;-122.806;2023-01-27T11:36:26;101907.91;;;23.65;39.59
50854;BME280;44154;45.506;-122.806;2023-01-27T11:38:53;101893.16;;;23.73;39.29
50854;BME280;44154;45.506;-122.806;2023-01-27T11:41:20;101866.03;;;23.46;39.54
50854;BME280;44154;45.506;-122.806;2023-01-27T11:43:47;101865.69;;;23.36;39.71
50854;BME280;44154;45.506;-122.806;2023-01-27T11:46:22;101867.47;;;23.24;40.03
50854;BME280;44154;45.506;-122.806;2023-01-27T11:48:54;101876.75;;;23.16;40.12
50854;BME280;44154;45.506;-122.806;2023-01-27T11:51:24;101869.22;;;23.04;39.97
50854;BME280;44154;45.506;-122.806;2023-01-27T11:54:22;101857.94;;;22.94;40.54
50854;BME280;44154;45.506;-122.806;2023-01-27T11:56:50;101860.50;;;22.89;40.59
50854;BME280;44154;45.506;-122.806;2023-01-27T11:59:27;101862.81;;;22.85;40.77
50854;BME280;44154;45.506;-122.806;2023-01-27T12:02:01;101850.72;;;23.13;40.47
50854;BME280;44154;45.506;-122.806;2023-01-27T12:05:00;101817.28;;;23.43;39.86
50854;BME280;44154;45.506;-122.806;2023-01-27T12:12:49;101795.00;;;23.46;39.45
50854;BME280;44154;45.506;-122.806;2023-01-27T12:15:16;101787.97;;;23.32;39.65
50854;BME280;44154;45.506;-122.806;2023-01-27T12:18:10;101777.19;;;23.12;39.93
50854;BME280;44154;45.506;-122.806;2023-01-27T12:20:42;101795.72;;;23.03;40.25
50854;BME280;44154;45.506;-122.806;2023-01-27T12:23:30;101787.19;;;22.93;40.28
50854;BME280;44154;45.506;-122.806;2023-01-27T12:26:00;101764.00;;;22.70;40.41
50854;BME280;44154;45.506;-122.806;2023-01-27T12:28:49;101792.06;;;22.84;40.51
50854;BME280;44154;45.506;-122.806;2023-01-27T12:31:19;101789.81;;;23.06;40.58
50854;BME280;44154;45.506;-122.806;2023-01-27T12:34:01;101782.94;;;23.29;40.04
50854;BME280;44154;45.506;-122.806;2023-01-27T12:36:28;101771.81;;;23.55;39.06
50854;BME280;44154;45.506;-122.806;2023-01-27T12:39:01;101772.94;;;23.66;38.99
50854;BME280;44154;45.506;-122.806;2023-01-27T12:41:30;101766.78;;;23.52;39.35
50854;BME280;44154;45.506;-122.806;2023-01-27T12:46:26;101769.97;;;23.24;39.72
50854;BME280;44154;45.506;-122.806;2023-01-27T12:49:00;101762.91;;;23.10;39.88
50854;BME280;44154;45.506;-122.806;2023-01-27T12:54:25;101782.97;;;22.90;40.22
50854;BME280;44154;45.506;-122.806;2023-01-27T12:56:55;101774.63;;;22.85;40.26
50854;BME280;44154;45.506;-122.806;2023-01-27T12:59:25;101777.38;;;22.85;40.50
50854;BME280;44154;45.506;-122.806;2023-01-27T13:04:37;101766.84;;;23.46;39.44
50854;BME280;44154;45.506;-122.806;2023-01-27T13:07:10;101761.56;;;23.69;39.01
50854;BME280;44154;45.506;-122.806;2023-01-27T13:09:59;101756.19;;;23.63;38.83
50854;BME280;44154;45.506;-122.806;2023-01-27T13:12:28;101749.41;;;23.47;39.00
50854;BME280;44154;45.506;-122.806;2023-01-27T13:15:05;101746.00;;;23.26;39.26
50854;BME280;44154;45.506;-122.806;2023-01-27T13:17:40;101759.09;;;23.17;39.46
50854;BME280;44154;45.506;-122.806;2023-01-27T13:20:34;101745.56;;;22.97;39.49
50854;BME280;44154;45.506;-122.806;2023-01-27T13:23:26;101756.69;;;22.96;39.90
50854;BME280;44154;45.506;-122.806;2023-01-27T13:31:33;101732.03;;;23.09;40.19
50854;BME280;44154;45.506;-122.806;2023-01-27T13:36:46;101719.28;;;23.72;39.00
50854;BME280;44154;45.506;-122.806;2023-01-27T13:44:45;101727.28;;;23.92;38.25
50854;BME280;44154;45.506;-122.806;2023-01-27T13:48:03;101721.41;;;23.70;38.58
50854;BME280;44154;45.506;-122.806;2023-01-27T13:50:15;101706.50;;;23.47;39.00
50854;BME280;44154;45.506;-122.806;2023-01-27T13:52:53;101701.47;;;23.26;39.22
50854;BME280;44154;45.506;-122.806;2023-01-27T13:56:09;101711.16;;;23.21;39.60
50854;BME280;44154;45.506;-122.806;2023-01-27T13:58:27;101715.31;;;23.49;39.31
50854;BME280;44154;45.506;-122.806;2023-01-27T14:04:10;101698.38;;;24.33;38.29
50854;BME280;44154;45.506;-122.806;2023-01-27T14:06:52;101701.50;;;24.18;38.35